sensor_id;sensor_type;location;lat;lon;timestamp;P1;durP1;ratioP1;P2;durP2;ratioP2
34134;SDS011;20410;55.578;12.968;2023-02-28T00:00:12;19.10;;;13.40;;
34134;SDS011;20410;55.578;12.968;2023-02-28T00:02:40;20.03;;;15.57;;
34134;SDS011;20410;55.578;12.968;2023-02-28T00:05:07;18.67;;;12.90;;
34134;SDS011;20410;55.578;12.968;2023-02-28T00:07:34;15.10;;;12.87;;
34134;SDS011;20410;55.578;12.968;2023-02-28T00:10:00;17.13;;;14.10;;
34134;SDS011;20410;55.578;12.968;2023-02-28T00:12:26;19.87;;;15.47;;
34134;SDS011;20410;55.578;12.968;2023-02-28T00:14:52;23.57;;;14.23;;
34134;SDS011;20410;55.578;12.968;2023-02-28T00:17:18;19.20;;;13.23;;
34134;SDS011;20410;55.578;12.968;2023-02-28T00:19:46;21.10;;;14.03;;
34134;SDS011;20410;55.578;12.968;2023-02-28T00:22:13;21.67;;;14.67;;
34134;SDS011;20410;55.578;12.968;2023-02-28T00:24:39;19.17;;;13.07;;
34134;SDS011;20410;55.578;12.968;2023-02-28T00:27:04;21.43;;;14.60;;
34134;SDS011;20410;55.578;12.968;2023-02-28T00:29:30;21.97;;;15.73;;
34134;SDS011;20410;55.578;12.968;2023-02-28T00:31:56;20.10;;;15.43;;
34134;SDS011;20410;55.578;12.968;2023-02-28T00:34:21;21.23;;;15.20;;
34134;SDS011;20410;55.578;12.968;2023-02-28T00:36:47;22.87;;;16.37;;
34134;SDS011;20410;55.578;12.968;2023-02-28T00:39:15;20.60;;;16.67;;
34134;SDS011;20410;55.578;12.968;2023-02-28T00:41:41;20.57;;;16.50;;
34134;SDS011;20410;55.578;12.968;2023-02-28T00:44:07;16.43;;;13.10;;
34134;SDS011;20410;55.578;12.968;2023-02-28T00:46:32;18.93;;;13.43;;
34134;SDS011;20410;55.578;12.968;2023-02-28T00:48:58;19.80;;;13.20;;
34134;SDS011;20410;55.578;12.968;2023-02-28T00:51:24;21.03;;;13.90;;
34134;SDS011;20410;55.578;12.968;2023-02-28T00:53:49;18.07;;;13.87;;
34134;SDS011;20410;55.578;12.968;2023-02-28T00:56:15;23.23;;;16.27;;
34134;SDS011;20410;55.578;12.968;2023-02-28T00:58:40;19.23;;;15.53;;
34134;SDS011;20410;55.578;12.968;2023-02-28T01:01:06;20.20;;;15.30;;
34134;SDS011;20410;55.578;12.968;2023-02-28T01:03:32;18.17;;;15.10;;
34134;SDS011;20410;55.578;12.968;2023-02-28T01:05:57;26.60;;;16.47;;
34134;SDS011;20410;55.578;12.968;2023-02-28T01:08:23;23.93;;;16.27;;
34134;SDS011;20410;55.578;12.968;2023-02-28T01:10:49;19.50;;;14.93;;
34134;SDS011;20410;55.578;12.968;2023-02-28T01:13:14;18.53;;;13.77;;
34134;SDS011;20410;55.578;12.968;2023-02-28T01:15:41;20.83;;;15.60;;
34134;SDS011;20410;55.578;12.968;2023-02-28T01:18:13;20.80;;;15.13;;
34134;SDS011;20410;55.578;12.968;2023-02-28T01:20:38;22.43;;;16.77;;
34134;SDS011;20410;55.578;12.968;2023-02-28T01:23:04;20.93;;;15.13;;
34134;SDS011;20410;55.578;12.968;2023-02-28T01:25:30;16.07;;;14.37;;
34134;SDS011;20410;55.578;12.968;2023-02-28T01:27:55;16.70;;;12.67;;
34134;SDS011;20410;55.578;12.968;2023-02-28T01:30:21;19.50;;;14.90;;
34134;SDS011;20410;55.578;12.968;2023-02-28T01:32:47;22.40;;;16.10;;
34134;SDS011;20410;55.578;12.968;2023-02-28T01:35:12;20.07;;;14.57;;
34134;SDS011;20410;55.578;12.968;2023-02-28T01:37:38;21.07;;;15.33;;
34134;SDS011;20410;55.578;12.968;2023-02-28T01:40:04;19.63;;;15.23;;
34134;SDS011;20410;55.578;12.968;2023-02-28T01:42:30;18.70;;;15.30;;
34134;SDS011;20410;55.578;12.968;2023-02-28T01:47:33;20.00;;;15.87;;
34134;SDS011;20410;55.578;12.968;2023-02-28T01:50:03;18.73;;;14.73;;
34134;SDS011;20410;55.578;12.968;2023-02-28T01:52:32;21.70;;;16.60;;
34134;SDS011;20410;55.578;12.968;2023-02-28T01:54:59;23.20;;;16.97;;
34134;SDS011;20410;55.578;12.968;2023-02-28T01:57:28;18.77;;;14.43;;
34134;SDS011;20410;55.578;12.968;2023-02-28T02:00:04;17.97;;;13.87;;
34134;SDS011;20410;55.578;12.968;2023-02-28T02:02:34;20.27;;;15.93;;
34134;SDS011;20410;55.578;12.968;2023-02-28T02:05:12;21.63;;;16.20;;
34134;SDS011;20410;55.578;12.968;2023-02-28T02:07:41;16.60;;;13.97;;
34134;SDS011;20410;55.578;12.968;2023-02-28T02:15:26;19.60;;;15.00;;
34134;SDS011;20410;55.578;12.968;2023-02-28T02:18:09;18.90;;;15.00;;
34134;SDS011;20410;55.578;12.968;2023-02-28T02:35:26;20.30;;;14.43;;
34134;SDS011;20410;55.578;12.968;2023-02-28T02:38:20;22.10;;;14.60;;
34134;SDS011;20410;55.578;12.968;2023-02-28T02:44:39;23.77;;;16.37;;
34134;SDS011;20410;55.578;12.968;2023-02-28T02:46:43;21.13;;;14.37;;
34134;SDS011;20410;55.578;12.968;2023-02-28T02:49:13;23.73;;;15.80;;
34134;SDS011;20410;55.578;12.968;2023-02-28T02:51:44;21.20;;;14.60;;
34134;SDS011;20410;55.578;12.968;2023-02-28T02:54:33;20.70;;;15.83;;
34134;SDS011;20410;55.578;12.968;2023-02-28T02:57:03;18.87;;;14.03;;
34134;SDS011;20410;55.578;12.968;2023-02-28T02:59:37;17.87;;;13.73;;
34134;SDS011;20410;55.578;12.968;2023-02-28T03:02:06;23.33;;;13.60;;
34134;SDS011;20410;55.578;12.968;2023-02-28T03:04:35;19.93;;;14.63;;
34134;SDS011;20410;55.578;12.968;2023-02-28T03:07:07;28.90;;;18.27;;
34134;SDS011;20410;55.578;12.968;2023-02-28T03:09:33;27.10;;;17.10;;
34134;SDS011;20410;55.578;12.968;2023-02-28T03:12:00;24.53;;;15.60;;
34134;SDS011;20410;55.578;12.968;2023-02-28T03:25:14;22.17;;;16.97;;
34134;SDS011;20410;55.578;12.968;2023-02-28T03:33:19;24.00;;;16.00;;
34134;SDS011;20410;55.578;12.968;2023-02-28T03:35:51;26.80;;;17.53;;
34134;SDS011;20410;55.578;12.968;2023-02-28T03:40:47;29.63;;;17.57;;
34134;SDS011;20410;55.578;12.968;2023-02-28T03:43:21;34.00;;;19.13;;
34134;SDS011;20410;55.578;12.968;2023-02-28T03:45:50;34.77;;;17.93;;
34134;SDS011;20410;55.578;12.968;2023-02-28T03:48:22;45.37;;;19.90;;
34134;SDS011;20410;55.578;12.968;2023-02-28T03:50:55;36.30;;;19.03;;
34134;SDS011;20410;55.578;12.968;2023-02-28T03:53:37;31.33;;;17.70;;
34134;SDS011;20410;55.578;12.968;2023-02-28T03:56:09;33.23;;;18.33;;
34134;SDS011;20410;55.578;12.968;2023-02-28T03:58:51;45.97;;;19.33;;
34134;SDS011;20410;55.578;12.968;2023-02-28T04:01:51;40.37;;;19.00;;
34134;SDS011;20410;55.578;12.968;2023-02-28T04:04:17;31.87;;;18.20;;
34134;SDS011;20410;55.578;12.968;2023-02-28T04:06:44;38.17;;;19.73;;
34134;SDS011;20410;55.578;12.968;2023-02-28T04:09:12;31.53;;;20.47;;
34134;SDS011;20410;55.578;12.968;2023-02-28T04:11:40;40.27;;;19.37;;
34134;SDS011;20410;55.578;12.968;2023-02-28T04:14:08;49.60;;;19.73;;
34134;SDS011;20410;55.578;12.968;2023-02-28T04:16:36;33.77;;;17.03;;
34134;SDS011;20410;55.578;12.968;2023-02-28T04:19:03;55.93;;;19.00;;
34134;SDS011;20410;55.578;12.968;2023-02-28T04:21:34;28.50;;;15.90;;
34134;SDS011;20410;55.578;12.968;2023-02-28T04:24:05;37.97;;;17.30;;
34134;SDS011;20410;55.578;12.968;2023-02-28T04:26:33;37.80;;;16.57;;
34134;SDS011;20410;55.578;12.968;2023-02-28T04:28:59;32.03;;;16.53;;
34134;SDS011;20410;55.578;12.968;2023-02-28T04:31:26;36.93;;;13.60;;
34134;SDS011;20410;55.578;12.968;2023-02-28T04:33:51;45.83;;;15.67;;
34134;SDS011;20410;55.578;12.968;2023-02-28T04:36:17;30.63;;;14.47;;
34134;SDS011;20410;55.578;12.968;2023-02-28T04:38:43;31.57;;;13.40;;
34134;SDS011;20410;55.578;12.968;2023-02-28T04:41:10;26.13;;;11.77;;
34134;SDS011;20410;55.578;12.968;2023-02-28T04:43:36;28.77;;;12.07;;
34134;SDS011;20410;55.578;12.968;2023-02-28T04:46:03;25.20;;;12.60;;
34134;SDS011;20410;55.578;12.968;2023-02-28T04:48:31;25.03;;;11.73;;
34134;SDS011;20410;55.578;12.968;2023-02-28T04:51:01;22.27;;;11.90;;
34134;SDS011;20410;55.578;12.968;2023-02-28T04:53:35;28.23;;;11.93;;
34134;SDS011;20410;55.578;12.968;2023-02-28T04:56:02;26.93;;;11.90;;
34134;SDS011;20410;55.578;12.968;2023-02-28T04:58:28;32.03;;;12.47;;
34134;SDS011;20410;55.578;12.968;2023-02-28T05:00:57;31.47;;;13.03;;
34134;SDS011;20410;55.578;12.968;2023-02-28T05:03:28;22.60;;;12.70;;
34134;SDS011;20410;55.578;12.968;2023-02-28T05:05:53;26.23;;;14.33;;
34134;SDS011;20410;55.578;12.968;2023-02-28T05:08:19;23.83;;;12.87;;
34134;SDS011;20410;55.578;12.968;2023-02-28T05:10:44;21.13;;;13.87;;
34134;SDS011;20410;55.578;12.968;2023-02-28T05:13:13;26.50;;;13.47;;
34134;SDS011;20410;55.578;12.968;2023-02-28T05:15:39;38.23;;;15.30;;
34134;SDS011;20410;55.578;12.968;2023-02-28T05:18:05;47.97;;;14.17;;
34134;SDS011;20410;55.578;12.968;2023-02-28T05:20:30;43.17;;;15.17;;
34134;SDS011;20410;55.578;12.968;2023-02-28T05:22:56;42.43;;;14.87;;
34134;SDS011;20410;55.578;12.968;2023-02-28T05:25:23;44.33;;;15.60;;
34134;SDS011;20410;55.578;12.968;2023-02-28T05:27:49;265.40;;;25.53;;
34134;SDS011;20410;55.578;12.968;2023-02-28T05:30:14;154.57;;;19.83;;
34134;SDS011;20410;55.578;12.968;2023-02-28T05:32:40;150.20;;;18.30;;
34134;SDS011;20410;55.578;12.968;2023-02-28T05:35:08;107.07;;;16.67;;
34134;SDS011;20410;55.578;12.968;2023-02-28T05:37:37;116.20;;;18.97;;
34134;SDS011;20410;55.578;12.968;2023-02-28T05:40:04;108.03;;;16.90;;
34134;SDS011;20410;55.578;12.968;2023-02-28T05:42:31;57.47;;;17.30;;
34134;SDS011;20410;55.578;12.968;2023-02-28T05:44:58;76.77;;;18.23;;
34134;SDS011;20410;55.578;12.968;2023-02-28T05:47:24;153.67;;;19.77;;
34134;SDS011;20410;55.578;12.968;2023-02-28T05:49:49;95.30;;;17.03;;
34134;SDS011;20410;55.578;12.968;2023-02-28T05:52:15;63.40;;;18.03;;
34134;SDS011;20410;55.578;12.968;2023-02-28T05:54:41;89.43;;;17.77;;
34134;SDS011;20410;55.578;12.968;2023-02-28T05:57:06;57.13;;;16.70;;
34134;SDS011;20410;55.578;12.968;2023-02-28T05:59:32;44.93;;;15.07;;
34134;SDS011;20410;55.578;12.968;2023-02-28T06:01:58;32.47;;;15.87;;
34134;SDS011;20410;55.578;12.968;2023-02-28T06:04:23;21.87;;;13.40;;
34134;SDS011;20410;55.578;12.968;2023-02-28T06:06:49;86.40;;;19.17;;
34134;SDS011;20410;55.578;12.968;2023-02-28T06:09:16;35.73;;;16.80;;
34134;SDS011;20410;55.578;12.968;2023-02-28T06:11:42;47.97;;;16.07;;
34134;SDS011;20410;55.578;12.968;2023-02-28T06:14:12;164.43;;;18.67;;
34134;SDS011;20410;55.578;12.968;2023-02-28T06:16:41;245.67;;;19.87;;
34134;SDS011;20410;55.578;12.968;2023-02-28T06:19:08;254.90;;;20.93;;
34134;SDS011;20410;55.578;12.968;2023-02-28T06:21:34;277.17;;;20.27;;
34134;SDS011;20410;55.578;12.968;2023-02-28T06:24:00;229.30;;;18.63;;
34134;SDS011;20410;55.578;12.968;2023-02-28T06:26:26;576.27;;;23.90;;
34134;SDS011;20410;55.578;12.968;2023-02-28T06:28:52;169.93;;;15.13;;
34134;SDS011;20410;55.578;12.968;2023-02-28T06:31:18;555.60;;;24.13;;
34134;SDS011;20410;55.578;12.968;2023-02-28T06:33:44;428.27;;;19.77;;
34134;SDS011;20410;55.578;12.968;2023-02-28T06:36:11;328.03;;;16.00;;
34134;SDS011;20410;55.578;12.968;2023-02-28T06:38:38;396.93;;;16.43;;
34134;SDS011;20410;55.578;12.968;2023-02-28T06:41:04;264.87;;;13.67;;
34134;SDS011;20410;55.578;12.968;2023-02-28T06:43:32;388.97;;;15.73;;
34134;SDS011;20410;55.578;12.968;2023-02-28T06:46:05;266.17;;;12.87;;
34134;SDS011;20410;55.578;12.968;2023-02-28T06:48:32;357.70;;;15.57;;
34134;SDS011;20410;55.578;12.968;2023-02-28T06:51:01;449.80;;;16.70;;
34134;SDS011;20410;55.578;12.968;2023-02-28T06:53:32;340.43;;;14.10;;
34134;SDS011;20410;55.578;12.968;2023-02-28T06:55:58;641.07;;;21.93;;
34134;SDS011;20410;55.578;12.968;2023-02-28T06:58:23;330.80;;;16.10;;
34134;SDS011;20410;55.578;12.968;2023-02-28T07:00:52;230.27;;;13.57;;
34134;SDS011;20410;55.578;12.968;2023-02-28T07:03:18;240.97;;;12.80;;
34134;SDS011;20410;55.578;12.968;2023-02-28T07:05:44;317.97;;;14.80;;
34134;SDS011;20410;55.578;12.968;2023-02-28T07:08:10;344.90;;;14.73;;
34134;SDS011;20410;55.578;12.968;2023-02-28T07:10:37;431.83;;;16.30;;
34134;SDS011;20410;55.578;12.968;2023-02-28T07:13:03;315.67;;;14.57;;
34134;SDS011;20410;55.578;12.968;2023-02-28T07:15:29;419.47;;;16.40;;
34134;SDS011;20410;55.578;12.968;2023-02-28T07:17:55;228.57;;;11.60;;
34134;SDS011;20410;55.578;12.968;2023-02-28T07:20:21;492.83;;;20.27;;
34134;SDS011;20410;55.578;12.968;2023-02-28T07:22:48;385.33;;;15.10;;
34134;SDS011;20410;55.578;12.968;2023-02-28T07:25:20;246.73;;;12.80;;
34134;SDS011;20410;55.578;12.968;2023-02-28T07:27:46;437.10;;;18.63;;
34134;SDS011;20410;55.578;12.968;2023-02-28T07:30:12;276.83;;;16.13;;
34134;SDS011;20410;55.578;12.968;2023-02-28T07:32:38;360.97;;;18.60;;
34134;SDS011;20410;55.578;12.968;2023-02-28T07:35:03;222.23;;;14.80;;
34134;SDS011;20410;55.578;12.968;2023-02-28T07:37:29;120.97;;;13.40;;
34134;SDS011;20410;55.578;12.968;2023-02-28T07:39:56;230.00;;;14.37;;
34134;SDS011;20410;55.578;12.968;2023-02-28T07:42:22;177.80;;;15.57;;
34134;SDS011;20410;55.578;12.968;2023-02-28T07:44:47;197.13;;;15.40;;
34134;SDS011;20410;55.578;12.968;2023-02-28T07:47:13;235.90;;;15.87;;
34134;SDS011;20410;55.578;12.968;2023-02-28T07:49:39;172.27;;;15.90;;
34134;SDS011;20410;55.578;12.968;2023-02-28T07:52:05;207.53;;;17.87;;
34134;SDS011;20410;55.578;12.968;2023-02-28T07:54:31;338.47;;;22.63;;
34134;SDS011;20410;55.578;12.968;2023-02-28T07:56:57;467.10;;;26.97;;
34134;SDS011;20410;55.578;12.968;2023-02-28T07:59:23;299.07;;;19.90;;
34134;SDS011;20410;55.578;12.968;2023-02-28T08:01:48;209.60;;;18.80;;
34134;SDS011;20410;55.578;12.968;2023-02-28T08:04:15;168.13;;;19.07;;
34134;SDS011;20410;55.578;12.968;2023-02-28T08:06:42;112.67;;;19.27;;
34134;SDS011;20410;55.578;12.968;2023-02-28T08:09:07;197.03;;;21.03;;
34134;SDS011;20410;55.578;12.968;2023-02-28T08:11:33;230.97;;;23.37;;
34134;SDS011;20410;55.578;12.968;2023-02-28T08:13:59;217.37;;;22.43;;
34134;SDS011;20410;55.578;12.968;2023-02-28T08:16:24;158.47;;;23.70;;
34134;SDS011;20410;55.578;12.968;2023-02-28T08:18:50;221.63;;;27.80;;
34134;SDS011;20410;55.578;12.968;2023-02-28T08:21:17;275.20;;;30.70;;
34134;SDS011;20410;55.578;12.968;2023-02-28T08:23:44;104.87;;;21.83;;
34134;SDS011;20410;55.578;12.968;2023-02-28T08:26:12;134.30;;;21.93;;
34134;SDS011;20410;55.578;12.968;2023-02-28T08:28:38;251.30;;;31.37;;
34134;SDS011;20410;55.578;12.968;2023-02-28T08:31:10;102.63;;;25.40;;
34134;SDS011;20410;55.578;12.968;2023-02-28T08:33:38;83.00;;;26.43;;
34134;SDS011;20410;55.578;12.968;2023-02-28T08:36:05;54.50;;;23.13;;
34134;SDS011;20410;55.578;12.968;2023-02-28T08:38:31;45.47;;;25.10;;
34134;SDS011;20410;55.578;12.968;2023-02-28T08:41:00;50.47;;;26.17;;
34134;SDS011;20410;55.578;12.968;2023-02-28T08:43:29;62.33;;;27.03;;
34134;SDS011;20410;55.578;12.968;2023-02-28T08:45:55;45.67;;;26.10;;
34134;SDS011;20410;55.578;12.968;2023-02-28T08:48:27;40.00;;;26.40;;
34134;SDS011;20410;55.578;12.968;2023-02-28T08:50:59;35.43;;;24.00;;
34134;SDS011;20410;55.578;12.968;2023-02-28T08:53:26;34.23;;;23.23;;
34134;SDS011;20410;55.578;12.968;2023-02-28T08:55:56;33.27;;;23.53;;
34134;SDS011;20410;55.578;12.968;2023-02-28T08:58:25;31.03;;;24.40;;
34134;SDS011;20410;55.578;12.968;2023-02-28T09:00:51;30.27;;;20.90;;
34134;SDS011;20410;55.578;12.968;2023-02-28T09:03:17;28.60;;;19.60;;
34134;SDS011;20410;55.578;12.968;2023-02-28T09:05:53;25.53;;;19.97;;
34134;SDS011;20410;55.578;12.968;2023-02-28T09:08:23;21.37;;;15.30;;
34134;SDS011;20410;55.578;12.968;2023-02-28T09:10:50;22.57;;;16.77;;
34134;SDS011;20410;55.578;12.968;2023-02-28T09:13:16;21.47;;;15.30;;
34134;SDS011;20410;55.578;12.968;2023-02-28T09:15:42;23.20;;;15.87;;
34134;SDS011;20410;55.578;12.968;2023-02-28T09:18:07;25.90;;;17.07;;
34134;SDS011;20410;55.578;12.968;2023-02-28T09:20:33;22.00;;;16.57;;
34134;SDS011;20410;55.578;12.968;2023-02-28T09:22:59;21.83;;;14.87;;
34134;SDS011;20410;55.578;12.968;2023-02-28T09:25:24;21.73;;;15.43;;
34134;SDS011;20410;55.578;12.968;2023-02-28T09:27:50;24.10;;;17.80;;
34134;SDS011;20410;55.578;12.968;2023-02-28T09:30:15;21.43;;;17.40;;
34134;SDS011;20410;55.578;12.968;2023-02-28T09:32:41;25.07;;;16.97;;
34134;SDS011;20410;55.578;12.968;2023-02-28T09:35:07;25.43;;;17.73;;
34134;SDS011;20410;55.578;12.968;2023-02-28T09:37:38;18.50;;;14.53;;
34134;SDS011;20410;55.578;12.968;2023-02-28T09:40:04;20.73;;;15.07;;
34134;SDS011;20410;55.578;12.968;2023-02-28T09:42:31;20.43;;;14.83;;
34134;SDS011;20410;55.578;12.968;2023-02-28T09:44:58;18.47;;;14.53;;
34134;SDS011;20410;55.578;12.968;2023-02-28T09:47:27;21.90;;;15.03;;
34134;SDS011;20410;55.578;12.968;2023-02-28T09:49:58;22.60;;;13.93;;
34134;SDS011;20410;55.578;12.968;2023-02-28T09:52:32;20.37;;;14.27;;
34134;SDS011;20410;55.578;12.968;2023-02-28T09:58:01;16.00;;;13.83;;
34134;SDS011;20410;55.578;12.968;2023-02-28T10:00:30;16.77;;;13.53;;
34134;SDS011;20410;55.578;12.968;2023-02-28T10:03:04;17.00;;;13.73;;
34134;SDS011;20410;55.578;12.968;2023-02-28T10:05:36;22.57;;;14.63;;
34134;SDS011;20410;55.578;12.968;2023-02-28T10:08:16;19.33;;;12.80;;
34134;SDS011;20410;55.578;12.968;2023-02-28T10:10:56;16.17;;;12.63;;
34134;SDS011;20410;55.578;12.968;2023-02-28T10:18:52;20.10;;;13.70;;
34134;SDS011;20410;55.578;12.968;2023-02-28T10:21:26;20.93;;;15.17;;
34134;SDS011;20410;55.578;12.968;2023-02-28T10:23:59;17.63;;;12.00;;
34134;SDS011;20410;55.578;12.968;2023-02-28T10:26:45;20.20;;;13.80;;
34134;SDS011;20410;55.578;12.968;2023-02-28T10:29:12;20.97;;;14.13;;
34134;SDS011;20410;55.578;12.968;2023-02-28T10:31:38;23.00;;;14.13;;
34134;SDS011;20410;55.578;12.968;2023-02-28T10:34:05;16.27;;;13.27;;
34134;SDS011;20410;55.578;12.968;2023-02-28T10:36:31;18.33;;;12.83;;
34134;SDS011;20410;55.578;12.968;2023-02-28T10:38:57;15.17;;;12.47;;
34134;SDS011;20410;55.578;12.968;2023-02-28T10:44:12;17.90;;;12.43;;
34134;SDS011;20410;55.578;12.968;2023-02-28T10:46:40;15.83;;;12.73;;
34134;SDS011;20410;55.578;12.968;2023-02-28T10:49:12;14.40;;;11.97;;
34134;SDS011;20410;55.578;12.968;2023-02-28T10:51:44;19.67;;;13.20;;
34134;SDS011;20410;55.578;12.968;2023-02-28T10:54:22;13.97;;;12.40;;
34134;SDS011;20410;55.578;12.968;2023-02-28T10:59:39;17.07;;;13.57;;
34134;SDS011;20410;55.578;12.968;2023-02-28T11:02:28;17.30;;;12.60;;
34134;SDS011;20410;55.578;12.968;2023-02-28T11:05:00;33.07;;;14.37;;
34134;SDS011;20410;55.578;12.968;2023-02-28T11:07:26;18.83;;;13.33;;
34134;SDS011;20410;55.578;12.968;2023-02-28T11:09:56;18.33;;;13.60;;
34134;SDS011;20410;55.578;12.968;2023-02-28T11:12:25;16.63;;;11.50;;
34134;SDS011;20410;55.578;12.968;2023-02-28T11:14:58;16.73;;;12.50;;
34134;SDS011;20410;55.578;12.968;2023-02-28T11:17:27;18.13;;;13.03;;
34134;SDS011;20410;55.578;12.968;2023-02-28T11:19:57;17.03;;;12.53;;
34134;SDS011;20410;55.578;12.968;2023-02-28T11:22:28;18.70;;;12.23;;
34134;SDS011;20410;55.578;12.968;2023-02-28T11:24:57;22.27;;;13.87;;
34134;SDS011;20410;55.578;12.968;2023-02-28T11:29:54;18.10;;;13.50;;
34134;SDS011;20410;55.578;12.968;2023-02-28T11:32:21;18.33;;;13.37;;
34134;SDS011;20410;55.578;12.968;2023-02-28T11:37:34;18.37;;;12.90;;
34134;SDS011;20410;55.578;12.968;2023-02-28T11:40:01;15.23;;;11.57;;
34134;SDS011;20410;55.578;12.968;2023-02-28T11:42:39;14.93;;;12.00;;
34134;SDS011;20410;55.578;12.968;2023-02-28T11:48:23;14.63;;;11.07;;
34134;SDS011;20410;55.578;12.968;2023-02-28T11:51:13;15.83;;;11.63;;
34134;SDS011;20410;55.578;12.968;2023-02-28T11:56:41;19.03;;;12.67;;
34134;SDS011;20410;55.578;12.968;2023-02-28T12:10:27;16.03;;;10.80;;
34134;SDS011;20410;55.578;12.968;2023-02-28T12:15:44;16.43;;;11.80;;
34134;SDS011;20410;55.578;12.968;2023-02-28T12:27:05;15.57;;;11.10;;
34134;SDS011;20410;55.578;12.968;2023-02-28T12:29:58;13.63;;;11.00;;
34134;SDS011;20410;55.578;12.968;2023-02-28T12:32:41;17.20;;;10.67;;
34134;SDS011;20410;55.578;12.968;2023-02-28T12:35:12;15.87;;;11.30;;
34134;SDS011;20410;55.578;12.968;2023-02-28T12:40:16;14.27;;;10.63;;
34134;SDS011;20410;55.578;12.968;2023-02-28T12:42:52;17.40;;;12.40;;
34134;SDS011;20410;55.578;12.968;2023-02-28T12:45:23;15.20;;;11.50;;
34134;SDS011;20410;55.578;12.968;2023-02-28T12:47:57;21.43;;;12.47;;
34134;SDS011;20410;55.578;12.968;2023-02-28T12:50:29;13.47;;;10.47;;
34134;SDS011;20410;55.578;12.968;2023-02-28T12:53:21;17.37;;;10.90;;
34134;SDS011;20410;55.578;12.968;2023-02-28T12:56:07;14.33;;;11.23;;
34134;SDS011;20410;55.578;12.968;2023-02-28T13:09:05;15.00;;;11.47;;
34134;SDS011;20410;55.578;12.968;2023-02-28T13:11:43;17.43;;;12.27;;
34134;SDS011;20410;55.578;12.968;2023-02-28T13:19:29;13.10;;;9.90;;
34134;SDS011;20410;55.578;12.968;2023-02-28T13:21:57;13.37;;;10.07;;
34134;SDS011;20410;55.578;12.968;2023-02-28T13:24:36;17.23;;;11.33;;
34134;SDS011;20410;55.578;12.968;2023-02-28T13:27:11;18.87;;;11.33;;
34134;SDS011;20410;55.578;12.968;2023-02-28T13:29:49;16.27;;;10.07;;
34134;SDS011;20410;55.578;12.968;2023-02-28T13:39:58;13.13;;;10.00;;
34134;SDS011;20410;55.578;12.968;2023-02-28T13:42:48;12.70;;;9.60;;
34134;SDS011;20410;55.578;12.968;2023-02-28T13:45:26;12.37;;;8.70;;
34134;SDS011;20410;55.578;12.968;2023-02-28T13:48:02;14.03;;;9.67;;
34134;SDS011;20410;55.578;12.968;2023-02-28T13:58:46;11.60;;;8.80;;
34134;SDS011;20410;55.578;12.968;2023-02-28T14:01:25;11.70;;;9.13;;
34134;SDS011;20410;55.578;12.968;2023-02-28T14:07:03;15.67;;;9.17;;
34134;SDS011;20410;55.578;12.968;2023-02-28T14:09:34;12.70;;;8.90;;
34134;SDS011;20410;55.578;12.968;2023-02-28T14:18:16;12.83;;;9.23;;
34134;SDS011;20410;55.578;12.968;2023-02-28T14:20:47;13.53;;;9.00;;
34134;SDS011;20410;55.578;12.968;2023-02-28T14:29:19;11.63;;;8.13;;
34134;SDS011;20410;55.578;12.968;2023-02-28T14:34:50;11.57;;;8.30;;
34134;SDS011;20410;55.578;12.968;2023-02-28T14:37:27;13.83;;;8.93;;
34134;SDS011;20410;55.578;12.968;2023-02-28T14:39:55;10.70;;;8.40;;
34134;SDS011;20410;55.578;12.968;2023-02-28T14:42:36;12.07;;;8.27;;
34134;SDS011;20410;55.578;12.968;2023-02-28T14:45:21;13.00;;;8.57;;
34134;SDS011;20410;55.578;12.968;2023-02-28T14:47:48;11.30;;;8.77;;
34134;SDS011;20410;55.578;12.968;2023-02-28T14:50:19;11.50;;;8.77;;
34134;SDS011;20410;55.578;12.968;2023-02-28T14:52:47;11.73;;;9.13;;
34134;SDS011;20410;55.578;12.968;2023-02-28T14:55:17;11.43;;;8.47;;
34134;SDS011;20410;55.578;12.968;2023-02-28T14:57:52;9.97;;;7.80;;
34134;SDS011;20410;55.578;12.968;2023-02-28T15:00:23;10.60;;;7.80;;
34134;SDS011;20410;55.578;12.968;2023-02-28T15:02:54;11.77;;;8.43;;
34134;SDS011;20410;55.578;12.968;2023-02-28T15:05:33;14.73;;;8.60;;
34134;SDS011;20410;55.578;12.968;2023-02-28T15:10:36;13.00;;;9.17;;
34134;SDS011;20410;55.578;12.968;2023-02-28T15:13:06;15.80;;;10.00;;
34134;SDS011;20410;55.578;12.968;2023-02-28T15:18:23;13.23;;;10.20;;
34134;SDS011;20410;55.578;12.968;2023-02-28T15:20:58;15.97;;;10.70;;
34134;SDS011;20410;55.578;12.968;2023-02-28T15:23:31;12.43;;;10.30;;
34134;SDS011;20410;55.578;12.968;2023-02-28T15:25:58;13.40;;;11.03;;
34134;SDS011;20410;55.578;12.968;2023-02-28T15:28:24;17.00;;;10.40;;
34134;SDS011;20410;55.578;12.968;2023-02-28T15:30:57;11.50;;;9.53;;
34134;SDS011;20410;55.578;12.968;2023-02-28T15:33:26;14.50;;;9.60;;
34134;SDS011;20410;55.578;12.968;2023-02-28T15:36:15;17.40;;;10.40;;
34134;SDS011;20410;55.578;12.968;2023-02-28T15:38:42;13.90;;;10.10;;
34134;SDS011;20410;55.578;12.968;2023-02-28T15:47:02;13.87;;;10.20;;
34134;SDS011;20410;55.578;12.968;2023-02-28T15:49:44;13.40;;;9.60;;
34134;SDS011;20410;55.578;12.968;2023-02-28T15:52:16;14.37;;;10.23;;
34134;SDS011;20410;55.578;12.968;2023-02-28T15:55:11;14.17;;;11.00;;
34134;SDS011;20410;55.578;12.968;2023-02-28T15:57:38;13.40;;;9.87;;
34134;SDS011;20410;55.578;12.968;2023-02-28T16:00:06;12.80;;;10.30;;
34134;SDS011;20410;55.578;12.968;2023-02-28T16:02:38;15.30;;;10.40;;
34134;SDS011;20410;55.578;12.968;2023-02-28T16:07:34;13.90;;;10.47;;
34134;SDS011;20410;55.578;12.968;2023-02-28T16:10:01;14.60;;;10.17;;
34134;SDS011;20410;55.578;12.968;2023-02-28T16:12:27;13.30;;;10.50;;
34134;SDS011;20410;55.578;12.968;2023-02-28T16:14:57;17.30;;;10.70;;
34134;SDS011;20410;55.578;12.968;2023-02-28T16:17:27;14.50;;;10.43;;
34134;SDS011;20410;55.578;12.968;2023-02-28T16:19:59;16.20;;;11.47;;
34134;SDS011;20410;55.578;12.968;2023-02-28T16:22:25;13.53;;;10.07;;
34134;SDS011;20410;55.578;12.968;2023-02-28T16:24:51;16.03;;;10.80;;
34134;SDS011;20410;55.578;12.968;2023-02-28T16:30:02;16.40;;;11.60;;
34134;SDS011;20410;55.578;12.968;2023-02-28T16:32:29;20.67;;;12.07;;
34134;SDS011;20410;55.578;12.968;2023-02-28T16:34:55;15.13;;;11.47;;
34134;SDS011;20410;55.578;12.968;2023-02-28T16:37:21;13.33;;;11.10;;
34134;SDS011;20410;55.578;12.968;2023-02-28T16:39:47;14.23;;;10.63;;
34134;SDS011;20410;55.578;12.968;2023-02-28T16:42:30;20.83;;;12.10;;
34134;SDS011;20410;55.578;12.968;2023-02-28T16:44:57;15.53;;;10.83;;
34134;SDS011;20410;55.578;12.968;2023-02-28T16:47:23;14.10;;;10.03;;
34134;SDS011;20410;55.578;12.968;2023-02-28T16:49:51;18.83;;;11.10;;
34134;SDS011;20410;55.578;12.968;2023-02-28T16:52:17;14.47;;;11.33;;
34134;SDS011;20410;55.578;12.968;2023-02-28T16:54:43;16.53;;;10.83;;
34134;SDS011;20410;55.578;12.968;2023-02-28T16:57:26;14.93;;;10.33;;
34134;SDS011;20410;55.578;12.968;2023-02-28T16:59:54;14.73;;;11.60;;
34134;SDS011;20410;55.578;12.968;2023-02-28T17:02:20;14.93;;;11.30;;